sensor_id;sensor_type;location;lat;lon;timestamp;pressure;altitude;pressure_sealevel;temperature;humidity
9822;BME280;4950;46.042;14.472;2023-06-01T00:01:26;98145.44;;;18.05;80.50
9822;BME280;4950;46.042;14.472;2023-06-01T00:03:58;98146.44;;;18.04;80.75
9822;BME280;4950;46.042;14.472;2023-06-01T00:06:26;98150.03;;;18.10;80.28
9822;BME280;4950;46.042;14.472;2023-06-01T00:08:53;98149.84;;;18.11;80.65
9822;BME280;4950;46.042;14.472;2023-06-01T00:11:20;98150.28;;;18.08;80.61
9822;BME280;4950;46.042;14.472;2023-06-01T00:13:47;98149.84;;;18.11;80.71
9822;BME280;4950;46.042;14.472;2023-06-01T00:16:14;98143.88;;;18.23;80.33
9822;BME280;4950;46.042;14.472;2023-06-01T00:18:40;98146.78;;;18.14;80.58
9822;BME280;4950;46.042;14.472;2023-06-01T00:21:07;98133.66;;;18.14;80.60
9822;BME280;4950;46.042;14.472;2023-06-01T00:23:35;98142.53;;;18.13;80.58
9822;BME280;4950;46.042;14.472;2023-06-01T00:26:02;98141.25;;;18.23;80.25
9822;BME280;4950;46.042;14.472;2023-06-01T00:28:29;98143.28;;;18.21;80.13
9822;BME280;4950;46.042;14.472;2023-06-01T00:30:55;98143.91;;;18.16;80.39
9822;BME280;4950;46.042;14.472;2023-06-01T00:33:22;98132.19;;;18.19;80.27
9822;BME280;4950;46.042;14.472;2023-06-01T00:35:48;98133.78;;;18.20;80.33
9822;BME280;4950;46.042;14.472;2023-06-01T00:38:15;98131.03;;;18.14;80.52
9822;BME280;4950;46.042;14.472;2023-06-01T00:40:44;98132.19;;;18.19;80.65
9822;BME280;4950;46.042;14.472;2023-06-01T00:43:10;98127.53;;;18.21;80.47
9822;BME280;4950;46.042;14.472;2023-06-01T00:45:37;98130.16;;;18.21;80.34
9822;BME280;4950;46.042;14.472;2023-06-01T00:48:04;98127.06;;;18.24;80.24
9822;BME280;4950;46.042;14.472;2023-06-01T00:50:31;98128.16;;;18.16;80.52
9822;BME280;4950;46.042;14.472;2023-06-01T00:52:58;98141.53;;;18.14;80.42
9822;BME280;4950;46.042;14.472;2023-06-01T00:55:27;98123.84;;;18.03;81.28
9822;BME280;4950;46.042;14.472;2023-06-01T00:57:55;98132.09;;;18.07;81.18
9822;BME280;4950;46.042;14.472;2023-06-01T01:00:22;98124.16;;;18.13;80.95
9822;BME280;4950;46.042;14.472;2023-06-01T01:02:50;98126.34;;;18.17;80.92
9822;BME280;4950;46.042;14.472;2023-06-01T01:05:17;98120.56;;;18.08;81.01
9822;BME280;4950;46.042;14.472;2023-06-01T01:07:51;98124.25;;;18.00;81.26
9822;BME280;4950;46.042;14.472;2023-06-01T01:10:25;98127.34;;;17.97;81.15
9822;BME280;4950;46.042;14.472;2023-06-01T01:13:03;98123.84;;;18.03;80.84
9822;BME280;4950;46.042;14.472;2023-06-01T01:15:41;98127.94;;;17.99;81.08
9822;BME280;4950;46.042;14.472;2023-06-01T01:18:11;98130.56;;;17.99;81.11
9822;BME280;4950;46.042;14.472;2023-06-01T01:20:44;98120.53;;;17.89;81.41
9822;BME280;4950;46.042;14.472;2023-06-01T01:23:38;98119.16;;;17.80;81.46
9822;BME280;4950;46.042;14.472;2023-06-01T01:26:14;98126.06;;;17.74;82.09
9822;BME280;4950;46.042;14.472;2023-06-01T01:28:43;98118.84;;;17.70;82.08
9822;BME280;4950;46.042;14.472;2023-06-01T01:31:15;98129.38;;;17.63;81.96
9822;BME280;4950;46.042;14.472;2023-06-01T01:33:44;98119.59;;;17.52;81.83
9822;BME280;4950;46.042;14.472;2023-06-01T01:36:12;98119.41;;;17.47;81.98
9822;BME280;4950;46.042;14.472;2023-06-01T01:38:39;98120.88;;;17.36;82.40
9822;BME280;4950;46.042;14.472;2023-06-01T01:41:06;98117.16;;;17.19;83.30
9822;BME280;4950;46.042;14.472;2023-06-01T01:43:32;98125.66;;;17.14;83.72
9822;BME280;4950;46.042;14.472;2023-06-01T01:46:07;98128.91;;;17.09;84.01
9822;BME280;4950;46.042;14.472;2023-06-01T01:48:39;98122.47;;;17.05;84.14
9822;BME280;4950;46.042;14.472;2023-06-01T01:51:10;98123.91;;;17.01;84.15
9822;BME280;4950;46.042;14.472;2023-06-01T01:53:41;98120.31;;;16.89;84.60
9822;BME280;4950;46.042;14.472;2023-06-01T01:56:09;98119.94;;;16.78;85.46
9822;BME280;4950;46.042;14.472;2023-06-01T01:58:36;98111.06;;;16.80;85.59
9822;BME280;4950;46.042;14.472;2023-06-01T02:01:05;98111.69;;;16.75;85.50
9822;BME280;4950;46.042;14.472;2023-06-01T02:03:32;98118.75;;;16.74;85.70
9822;BME280;4950;46.042;14.472;2023-06-01T02:05:58;98120.34;;;16.75;86.00
9822;BME280;4950;46.042;14.472;2023-06-01T02:08:25;98123.34;;;16.79;86.50
9822;BME280;4950;46.042;14.472;2023-06-01T02:10:51;98122.16;;;16.88;86.04
9822;BME280;4950;46.042;14.472;2023-06-01T02:13:18;98112.06;;;16.85;86.15
9822;BME280;4950;46.042;14.472;2023-06-01T02:15:45;98109.28;;;16.67;85.76
9822;BME280;4950;46.042;14.472;2023-06-01T02:18:13;98118.00;;;16.61;85.60
9822;BME280;4950;46.042;14.472;2023-06-01T02:20:41;98119.03;;;16.46;86.02
9822;BME280;4950;46.042;14.472;2023-06-01T02:23:07;98121.28;;;16.43;86.33
9822;BME280;4950;46.042;14.472;2023-06-01T02:25:34;98117.84;;;16.35;87.03
9822;BME280;4950;46.042;14.472;2023-06-01T02:28:01;98118.25;;;16.32;87.43
9822;BME280;4950;46.042;14.472;2023-06-01T02:30:28;98111.03;;;16.28;88.09
9822;BME280;4950;46.042;14.472;2023-06-01T02:32:54;98114.03;;;16.25;88.45
9822;BME280;4950;46.042;14.472;2023-06-01T02:35:22;98117.09;;;16.22;89.10
9822;BME280;4950;46.042;14.472;2023-06-01T02:37:49;98114.06;;;16.18;88.72
9822;BME280;4950;46.042;14.472;2023-06-01T02:40:16;98117.06;;;16.15;88.77
9822;BME280;4950;46.042;14.472;2023-06-01T02:42:42;98117.09;;;16.08;89.89
9822;BME280;4950;46.042;14.472;2023-06-01T02:45:09;98119.53;;;15.96;90.51
9822;BME280;4950;46.042;14.472;2023-06-01T02:47:35;98108.25;;;15.89;91.76
9822;BME280;4950;46.042;14.472;2023-06-01T02:50:02;98113.50;;;15.96;91.10
9822;BME280;4950;46.042;14.472;2023-06-01T02:52:31;98109.25;;;15.95;91.66
9822;BME280;4950;46.042;14.472;2023-06-01T02:54:58;98110.03;;;15.95;91.75
9822;BME280;4950;46.042;14.472;2023-06-01T02:57:24;98102.41;;;15.87;92.19
9822;BME280;4950;46.042;14.472;2023-06-01T02:59:51;98102.81;;;15.84;92.32
9822;BME280;4950;46.042;14.472;2023-06-01T03:02:17;98100.81;;;15.86;92.18
9822;BME280;4950;46.042;14.472;2023-06-01T03:04:44;98102.41;;;16.01;92.16
9822;BME280;4950;46.042;14.472;2023-06-01T03:07:10;98101.59;;;16.13;90.99
9822;BME280;4950;46.042;14.472;2023-06-01T03:09:39;98096.53;;;16.25;90.50
9822;BME280;4950;46.042;14.472;2023-06-01T03:12:06;98094.06;;;16.30;89.74
9822;BME280;4950;46.042;14.472;2023-06-01T03:14:33;98100.50;;;16.34;89.70
9822;BME280;4950;46.042;14.472;2023-06-01T03:17:00;98090.19;;;16.46;88.85
9822;BME280;4950;46.042;14.472;2023-06-01T03:19:26;98089.19;;;16.47;88.19
9822;BME280;4950;46.042;14.472;2023-06-01T03:21:53;98093.00;;;16.51;88.37
9822;BME280;4950;46.042;14.472;2023-06-01T03:24:20;98096.22;;;16.53;87.78
9822;BME280;4950;46.042;14.472;2023-06-01T03:26:49;98102.09;;;16.49;87.76
9822;BME280;4950;46.042;14.472;2023-06-01T03:29:16;98091.63;;;16.49;87.77
9822;BME280;4950;46.042;14.472;2023-06-01T03:31:42;98088.38;;;16.53;87.67
9822;BME280;4950;46.042;14.472;2023-06-01T03:34:09;98092.78;;;16.59;87.18
9822;BME280;4950;46.042;14.472;2023-06-01T03:36:36;98097.03;;;16.61;87.05
9822;BME280;4950;46.042;14.472;2023-06-01T03:39:03;98092.38;;;16.63;86.71
9822;BME280;4950;46.042;14.472;2023-06-01T03:41:33;98100.19;;;16.69;86.27
9822;BME280;4950;46.042;14.472;2023-06-01T03:44:01;98089.50;;;16.71;86.22
9822;BME280;4950;46.042;14.472;2023-06-01T03:46:28;98085.69;;;16.67;86.37
9822;BME280;4950;46.042;14.472;2023-06-01T03:48:54;98090.16;;;16.66;86.20
9822;BME280;4950;46.042;14.472;2023-06-01T03:51:21;98089.56;;;16.64;86.29
9822;BME280;4950;46.042;14.472;2023-06-01T03:53:48;98100.03;;;16.64;86.24
9822;BME280;4950;46.042;14.472;2023-06-01T03:56:14;98098.41;;;16.63;85.87
9822;BME280;4950;46.042;14.472;2023-06-01T03:58:41;98104.06;;;16.67;86.22
9822;BME280;4950;46.042;14.472;2023-06-01T04:01:09;98106.28;;;16.63;86.32
9822;BME280;4950;46.042;14.472;2023-06-01T04:03:37;98091.78;;;16.61;86.29
9822;BME280;4950;46.042;14.472;2023-06-01T04:06:03;98103.28;;;16.53;86.92
9822;BME280;4950;46.042;14.472;2023-06-01T04:08:37;98099.28;;;16.44;87.45
9822;BME280;4950;46.042;14.472;2023-06-01T04:11:07;98102.59;;;16.12;88.73
9822;BME280;4950;46.042;14.472;2023-06-01T04:13:34;98112.06;;;16.00;89.77
9822;BME280;4950;46.042;14.472;2023-06-01T04:16:00;98105.03;;;15.87;90.50
9822;BME280;4950;46.042;14.472;2023-06-01T04:18:28;98107.03;;;15.65;91.09
9822;BME280;4950;46.042;14.472;2023-06-01T04:20:55;98112.81;;;15.40;92.68
9822;BME280;4950;46.042;14.472;2023-06-01T04:23:22;98112.81;;;15.40;93.73
9822;BME280;4950;46.042;14.472;2023-06-01T04:25:48;98105.00;;;15.60;92.93
9822;BME280;4950;46.042;14.472;2023-06-01T04:28:16;98102.22;;;15.75;91.87
9822;BME280;4950;46.042;14.472;2023-06-01T04:30:43;98097.38;;;15.86;90.97
9822;BME280;4950;46.042;14.472;2023-06-01T04:33:12;98093.34;;;15.83;91.41
9822;BME280;4950;46.042;14.472;2023-06-01T04:35:40;98106.84;;;15.73;91.34
9822;BME280;4950;46.042;14.472;2023-06-01T04:38:08;98102.00;;;15.70;92.29
9822;BME280;4950;46.042;14.472;2023-06-01T04:40:35;98118.69;;;15.69;92.77
9822;BME280;4950;46.042;14.472;2023-06-01T04:43:02;98114.66;;;15.60;92.01
9822;BME280;4950;46.042;14.472;2023-06-01T04:45:29;98117.88;;;15.55;92.28
9822;BME280;4950;46.042;14.472;2023-06-01T04:47:56;98111.44;;;15.58;91.81
9822;BME280;4950;46.042;14.472;2023-06-01T04:50:23;98112.66;;;15.49;91.83
9822;BME280;4950;46.042;14.472;2023-06-01T04:52:51;98115.88;;;15.57;92.44
9822;BME280;4950;46.042;14.472;2023-06-01T04:55:18;98110.84;;;15.69;92.30
9822;BME280;4950;46.042;14.472;2023-06-01T04:57:44;98100.78;;;15.79;91.99
9822;BME280;4950;46.042;14.472;2023-06-01T05:00:12;98099.19;;;15.92;90.92
9822;BME280;4950;46.042;14.472;2023-06-01T05:02:40;98092.53;;;15.96;90.74
9822;BME280;4950;46.042;14.472;2023-06-01T05:05:08;98098.38;;;15.98;90.82
9822;BME280;4950;46.042;14.472;2023-06-01T05:07:35;98097.16;;;16.01;91.05
9822;BME280;4950;46.042;14.472;2023-06-01T05:10:05;98093.91;;;16.05;90.43
9822;BME280;4950;46.042;14.472;2023-06-01T05:12:32;98096.38;;;16.00;90.58
9822;BME280;4950;46.042;14.472;2023-06-01T05:14:58;98097.38;;;16.06;90.68
9822;BME280;4950;46.042;14.472;2023-06-01T05:17:25;98090.31;;;16.06;90.61
9822;BME280;4950;46.042;14.472;2023-06-01T05:19:52;98093.13;;;16.05;91.15
9822;BME280;4950;46.042;14.472;2023-06-01T05:22:19;98095.75;;;16.11;91.39
9822;BME280;4950;46.042;14.472;2023-06-01T05:24:45;98099.56;;;16.15;90.81
9822;BME280;4950;46.042;14.472;2023-06-01T05:27:13;98100.38;;;16.09;90.52
9822;BME280;4950;46.042;14.472;2023-06-01T05:29:40;98092.94;;;16.06;91.14
9822;BME280;4950;46.042;14.472;2023-06-01T05:32:08;98092.09;;;16.12;90.66
9822;BME280;4950;46.042;14.472;2023-06-01T05:34:34;98092.72;;;16.14;90.40
9822;BME280;4950;46.042;14.472;2023-06-01T05:37:01;98092.31;;;16.17;90.62
9822;BME280;4950;46.042;14.472;2023-06-01T05:39:28;98090.47;;;16.25;90.72
9822;BME280;4950;46.042;14.472;2023-06-01T05:41:55;98088.25;;;16.15;89.97
9822;BME280;4950;46.042;14.472;2023-06-01T05:44:24;98093.75;;;16.00;91.52
9822;BME280;4950;46.042;14.472;2023-06-01T05:46:51;98087.50;;;16.08;92.27
9822;BME280;4950;46.042;14.472;2023-06-01T05:49:18;98085.06;;;16.19;91.79
9822;BME280;4950;46.042;14.472;2023-06-01T05:51:44;98079.97;;;16.31;91.45
9822;BME280;4950;46.042;14.472;2023-06-01T05:54:11;98086.41;;;16.35;90.95
9822;BME280;4950;46.042;14.472;2023-06-01T05:56:38;98084.00;;;16.41;91.30
9822;BME280;4950;46.042;14.472;2023-06-01T05:59:05;98083.97;;;16.47;90.76
9822;BME280;4950;46.042;14.472;2023-06-01T06:01:33;98078.31;;;16.50;90.46
9822;BME280;4950;46.042;14.472;2023-06-01T06:04:01;98079.13;;;16.51;90.00
9822;BME280;4950;46.042;14.472;2023-06-01T06:06:27;98078.28;;;16.57;90.53
9822;BME280;4950;46.042;14.472;2023-06-01T06:08:54;98079.28;;;16.63;90.44
9822;BME280;4950;46.042;14.472;2023-06-01T06:11:21;98068.97;;;16.68;89.35
9822;BME280;4950;46.042;14.472;2023-06-01T06:13:48;98079.47;;;16.68;88.53
9822;BME280;4950;46.042;14.472;2023-06-01T06:16:15;98077.00;;;16.73;89.06
9822;BME280;4950;46.042;14.472;2023-06-01T06:18:43;98080.59;;;16.85;88.97
9822;BME280;4950;46.042;14.472;2023-06-01T06:21:10;98081.97;;;16.94;88.17
9822;BME280;4950;46.042;14.472;2023-06-01T06:23:36;98081.72;;;17.03;87.66
9822;BME280;4950;46.042;14.472;2023-06-01T06:26:05;98079.47;;;17.13;87.25
9822;BME280;4950;46.042;14.472;2023-06-01T06:28:31;98077.00;;;17.18;86.56
9822;BME280;4950;46.042;14.472;2023-06-01T06:30:58;98069.94;;;17.19;86.15
9822;BME280;4950;46.042;14.472;2023-06-01T06:33:25;98080.38;;;17.25;86.11
9822;BME280;4950;46.042;14.472;2023-06-01T06:35:53;98084.78;;;17.31;85.32
9822;BME280;4950;46.042;14.472;2023-06-01T06:38:20;98080.72;;;17.35;84.27
9822;BME280;4950;46.042;14.472;2023-06-01T06:40:47;98084.13;;;17.36;84.52
9822;BME280;4950;46.042;14.472;2023-06-01T06:43:13;98079.84;;;17.42;84.90
9822;BME280;4950;46.042;14.472;2023-06-01T06:45:41;98092.34;;;17.46;85.11
9822;BME280;4950;46.042;14.472;2023-06-01T06:48:08;98086.25;;;17.52;85.48
9822;BME280;4950;46.042;14.472;2023-06-01T06:50:34;98091.06;;;17.55;84.81
9822;BME280;4950;46.042;14.472;2023-06-01T06:53:03;98088.19;;;17.64;83.50
9822;BME280;4950;46.042;14.472;2023-06-01T06:55:33;98087.53;;;17.68;82.67
9822;BME280;4950;46.042;14.472;2023-06-01T06:58:00;98085.88;;;17.74;82.65
9822;BME280;4950;46.042;14.472;2023-06-01T07:00:27;98081.16;;;17.83;82.17
9822;BME280;4950;46.042;14.472;2023-06-01T07:02:54;98080.09;;;17.90;81.82
9822;BME280;4950;46.042;14.472;2023-06-01T07:05:20;98078.00;;;17.99;81.06
9822;BME280;4950;46.042;14.472;2023-06-01T07:07:47;98086.25;;;18.03;80.66
9822;BME280;4950;46.042;14.472;2023-06-01T07:10:15;98081.72;;;18.10;80.56
9822;BME280;4950;46.042;14.472;2023-06-01T07:12:42;98078.22;;;18.16;80.71
9822;BME280;4950;46.042;14.472;2023-06-01T07:15:09;98083.22;;;18.24;80.60
9822;BME280;4950;46.042;14.472;2023-06-01T07:17:35;98082.72;;;18.34;80.38
9822;BME280;4950;46.042;14.472;2023-06-01T07:20:03;98085.03;;;18.42;79.51
9822;BME280;4950;46.042;14.472;2023-06-01T07:22:31;98084.16;;;18.48;78.80
9822;BME280;4950;46.042;14.472;2023-06-01T07:24:58;98078.97;;;18.60;77.58
9822;BME280;4950;46.042;14.472;2023-06-01T07:27:28;98077.88;;;18.68;77.10
9822;BME280;4950;46.042;14.472;2023-06-01T07:29:55;98083.03;;;18.74;75.85
9822;BME280;4950;46.042;14.472;2023-06-01T07:32:21;98082.78;;;18.83;75.53
9822;BME280;4950;46.042;14.472;2023-06-01T07:34:48;98076.63;;;18.89;74.96
9822;BME280;4950;46.042;14.472;2023-06-01T07:37:15;98085.00;;;18.98;74.87
9822;BME280;4950;46.042;14.472;2023-06-01T07:39:41;98080.88;;;19.02;74.71
9822;BME280;4950;46.042;14.472;2023-06-01T07:42:08;98085.19;;;19.14;74.00
9822;BME280;4950;46.042;14.472;2023-06-01T07:44:36;98082.34;;;19.28;72.84
9822;BME280;4950;46.042;14.472;2023-06-01T07:47:03;98079.72;;;19.28;73.46
9822;BME280;4950;46.042;14.472;2023-06-01T07:49:30;98071.94;;;19.33;73.41
9822;BME280;4950;46.042;14.472;2023-06-01T07:51:56;98063.25;;;19.32;72.29
9822;BME280;4950;46.042;14.472;2023-06-01T07:54:24;98063.81;;;19.34;72.11
9822;BME280;4950;46.042;14.472;2023-06-01T07:56:50;98068.63;;;19.38;72.07
9822;BME280;4950;46.042;14.472;2023-06-01T07:59:17;98061.41;;;19.45;72.22
9822;BME280;4950;46.042;14.472;2023-06-01T08:01:45;98066.97;;;19.55;72.03
9822;BME280;4950;46.042;14.472;2023-06-01T08:04:11;98064.41;;;19.60;71.95
9822;BME280;4950;46.042;14.472;2023-06-01T08:06:39;98067.97;;;19.66;72.27
9822;BME280;4950;46.042;14.472;2023-06-01T08:09:06;98060.34;;;19.76;72.61
9822;BME280;4950;46.042;14.472;2023-06-01T08:11:33;98056.56;;;19.84;72.30
9822;BME280;4950;46.042;14.472;2023-06-01T08:14:00;98055.19;;;19.93;71.78
9822;BME280;4950;46.042;14.472;2023-06-01T08:16:28;98056.09;;;19.99;70.56
9822;BME280;4950;46.042;14.472;2023-06-01T08:18:56;98055.19;;;20.05;70.80
9822;BME280;4950;46.042;14.472;2023-06-01T08:21:24;98051.16;;;20.14;70.83
9822;BME280;4950;46.042;14.472;2023-06-01T08:23:51;98052.06;;;20.20;71.46
9822;BME280;4950;46.042;14.472;2023-06-01T08:26:20;98051.34;;;20.36;71.69
9822;BME280;4950;46.042;14.472;2023-06-01T08:28:47;98045.47;;;20.46;70.96
9822;BME280;4950;46.042;14.472;2023-06-01T08:31:17;98045.09;;;20.54;69.95
9822;BME280;4950;46.042;14.472;2023-06-01T08:33:44;98042.72;;;20.64;67.96
9822;BME280;4950;46.042;14.472;2023-06-01T08:36:11;98043.78;;;20.80;67.87
9822;BME280;4950;46.042;14.472;2023-06-01T08:38:38;98045.19;;;21.00;67.21
9822;BME280;4950;46.042;14.472;2023-06-01T08:41:11;98045.75;;;21.19;63.00
9822;BME280;4950;46.042;14.472;2023-06-01T08:43:43;98035.50;;;21.22;63.04
9822;BME280;4950;46.042;14.472;2023-06-01T08:46:10;98039.78;;;21.23;63.74
9822;BME280;4950;46.042;14.472;2023-06-01T08:48:38;98038.25;;;21.27;64.32
9822;BME280;4950;46.042;14.472;2023-06-01T08:51:06;98036.31;;;21.40;64.07
9822;BME280;4950;46.042;14.472;2023-06-01T08:53:34;98038.03;;;21.63;62.19
9822;BME280;4950;46.042;14.472;2023-06-01T08:56:01;98043.13;;;21.69;62.78
9822;BME280;4950;46.042;14.472;2023-06-01T08:58:29;98040.59;;;21.75;60.93
9822;BME280;4950;46.042;14.472;2023-06-01T09:00:56;98035.63;;;21.78;61.72
9822;BME280;4950;46.042;14.472;2023-06-01T09:03:24;98032.00;;;21.84;61.76
9822;BME280;4950;46.042;14.472;2023-06-01T09:05:51;98021.81;;;21.93;62.40
9822;BME280;4950;46.042;14.472;2023-06-01T09:08:18;98016.59;;;21.98;61.56
9822;BME280;4950;46.042;14.472;2023-06-01T09:10:48;98024.16;;;22.12;62.97
9822;BME280;4950;46.042;14.472;2023-06-01T09:13:30;98022.44;;;22.22;59.62
9822;BME280;4950;46.042;14.472;2023-06-01T09:15:56;98022.84;;;22.31;59.70
9822;BME280;4950;46.042;14.472;2023-06-01T09:18:23;98019.28;;;22.42;59.31
9822;BME280;4950;46.042;14.472;2023-06-01T09:20:50;98026.03;;;22.55;58.81
9822;BME280;4950;46.042;14.472;2023-06-01T09:23:24;98016.59;;;22.64;58.13
9822;BME280;4950;46.042;14.472;2023-06-01T09:26:04;98017.38;;;22.87;59.22
9822;BME280;4950;46.042;14.472;2023-06-01T09:28:52;98018.16;;;22.87;60.18
9822;BME280;4950;46.042;14.472;2023-06-01T09:31:35;98020.28;;;22.91;57.92
9822;BME280;4950;46.042;14.472;2023-06-01T09:34:02;98014.50;;;22.94;56.45
9822;BME280;4950;46.042;14.472;2023-06-01T09:36:29;98019.56;;;22.95;54.25
9822;BME280;4950;46.042;14.472;2023-06-01T09:39:00;98014.00;;;22.97;54.00
9822;BME280;4950;46.042;14.472;2023-06-01T09:41:47;98017.44;;;22.97;54.10
9822;BME280;4950;46.042;14.472;2023-06-01T09:44:14;98012.69;;;22.99;53.94
9822;BME280;4950;46.042;14.472;2023-06-01T09:46:48;98017.22;;;22.99;54.13
9822;BME280;4950;46.042;14.472;2023-06-01T09:49:22;98015.28;;;22.94;54.66
9822;BME280;4950;46.042;14.472;2023-06-01T09:51:50;98011.91;;;22.99;54.24
9822;BME280;4950;46.042;14.472;2023-06-01T09:54:28;98014.28;;;23.00;54.30
9822;BME280;4950;46.042;14.472;2023-06-01T09:56:58;98016.69;;;23.02;54.24
9822;BME280;4950;46.042;14.472;2023-06-01T09:59:26;98012.41;;;22.96;55.80
9822;BME280;4950;46.042;14.472;2023-06-01T10:01:56;98014.50;;;22.94;56.57
9822;BME280;4950;46.042;14.472;2023-06-01T10:04:23;98018.47;;;22.96;54.87
9822;BME280;4950;46.042;14.472;2023-06-01T10:06:52;98013.19;;;22.96;55.93
9822;BME280;4950;46.042;14.472;2023-06-01T10:09:20;98012.16;;;22.97;57.25
9822;BME280;4950;46.042;14.472;2023-06-01T10:11:49;98008.41;;;22.93;55.55
9822;BME280;4950;46.042;14.472;2023-06-01T10:14:20;98020.28;;;22.91;55.46
9822;BME280;4950;46.042;14.472;2023-06-01T10:16:49;98012.63;;;22.89;55.09
9822;BME280;4950;46.042;14.472;2023-06-01T10:19:16;98012.63;;;22.94;55.79
9822;BME280;4950;46.042;14.472;2023-06-01T10:21:44;98000.22;;;22.95;55.23
9822;BME280;4950;46.042;14.472;2023-06-01T10:24:12;97998.63;;;22.94;55.28
9822;BME280;4950;46.042;14.472;2023-06-01T10:26:43;97997.31;;;22.96;55.32
9822;BME280;4950;46.042;14.472;2023-06-01T10:29:16;97998.66;;;22.99;55.27
9822;BME280;4950;46.042;14.472;2023-06-01T10:31:45;97996.06;;;23.04;55.37
9822;BME280;4950;46.042;14.472;2023-06-01T10:34:12;97993.66;;;23.02;56.33
9822;BME280;4950;46.042;14.472;2023-06-01T10:37:12;97999.78;;;23.03;57.86
9822;BME280;4950;46.042;14.472;2023-06-01T10:39:39;97995.47;;;22.97;59.53
9822;BME280;4950;46.042;14.472;2023-06-01T10:42:38;98000.47;;;22.93;61.26
9822;BME280;4950;46.042;14.472;2023-06-01T10:47:49;98003.41;;;22.97;63.08
9822;BME280;4950;46.042;14.472;2023-06-01T10:50:17;97998.16;;;23.02;62.68
9822;BME280;4950;46.042;14.472;2023-06-01T10:52:44;97991.38;;;23.11;61.99
9822;BME280;4950;46.042;14.472;2023-06-01T10:55:23;97999.41;;;23.21;62.65
9822;BME280;4950;46.042;14.472;2023-06-01T10:57:50;97998.91;;;23.24;63.32
9822;BME280;4950;46.042;14.472;2023-06-01T11:00:19;97997.28;;;23.18;63.28
9822;BME280;4950;46.042;14.472;2023-06-01T11:02:58;97991.69;;;23.20;61.44
9822;BME280;4950;46.042;14.472;2023-06-01T11:05:49;97988.81;;;23.21;61.26
9822;BME280;4950;46.042;14.472;2023-06-01T11:08:58;97985.91;;;23.23;60.19
9822;BME280;4950;46.042;14.472;2023-06-01T11:11:56;97987.75;;;23.22;60.72
9822;BME280;4950;46.042;14.472;2023-06-01T11:14:24;97980.34;;;23.24;60.50
9822;BME280;4950;46.042;14.472;2023-06-01T11:16:51;97975.59;;;23.26;62.14
9822;BME280;4950;46.042;14.472;2023-06-01T11:19:21;97972.97;;;23.32;63.41
9822;BME280;4950;46.042;14.472;2023-06-01T11:21:55;97973.03;;;23.37;64.67
9822;BME280;4950;46.042;14.472;2023-06-01T11:24:31;97973.56;;;23.39;64.84
9822;BME280;4950;46.042;14.472;2023-06-01T11:26:59;97963.50;;;23.36;64.05
9822;BME280;4950;46.042;14.472;2023-06-01T11:29:26;97966.38;;;23.34;64.21
9822;BME280;4950;46.042;14.472;2023-06-01T11:31:54;97955.25;;;23.32;64.70
9822;BME280;4950;46.042;14.472;2023-06-01T11:34:30;97961.88;;;23.35;64.40
9822;BME280;4950;46.042;14.472;2023-06-01T11:36:57;97954.22;;;23.38;64.93
9822;BME280;4950;46.042;14.472;2023-06-01T11:39:25;97959.53;;;23.38;65.14
9822;BME280;4950;46.042;14.472;2023-06-01T11:42:03;97946.03;;;23.40;64.42
9822;BME280;4950;46.042;14.472;2023-06-01T11:44:31;97943.91;;;23.42;63.68
9822;BME280;4950;46.042;14.472;2023-06-01T11:46:58;97938.09;;;23.45;63.90
9822;BME280;4950;46.042;14.472;2023-06-01T11:49:27;97936.50;;;23.49;63.40
9822;BME280;4950;46.042;14.472;2023-06-01T11:51:55;97935.22;;;23.52;63.38
9822;BME280;4950;46.042;14.472;2023-06-01T11:54:27;97923.56;;;23.53;63.99
9822;BME280;4950;46.042;14.472;2023-06-01T11:56:56;97925.16;;;23.59;64.96
9822;BME280;4950;46.042;14.472;2023-06-01T11:59:23;97926.53;;;23.61;64.97
9822;BME280;4950;46.042;14.472;2023-06-01T12:01:50;97924.44;;;23.69;65.43
9822;BME280;4950;46.042;14.472;2023-06-01T12:04:20;97918.13;;;23.75;65.54
9822;BME280;4950;46.042;14.472;2023-06-01T12:06:48;97912.06;;;23.79;65.68
9822;BME280;4950;46.042;14.472;2023-06-01T12:09:15;97911.25;;;23.84;65.40
9822;BME280;4950;46.042;14.472;2023-06-01T12:11:43;97915.53;;;23.90;64.77
9822;BME280;4950;46.042;14.472;2023-06-01T12:14:10;97905.75;;;23.96;63.88
9822;BME280;4950;46.042;14.472;2023-06-01T12:16:54;97906.81;;;24.00;63.55
9822;BME280;4950;46.042;14.472;2023-06-01T12:19:22;97912.13;;;24.05;62.40
9822;BME280;4950;46.042;14.472;2023-06-01T12:21:51;97906.03;;;24.10;61.42
9822;BME280;4950;46.042;14.472;2023-06-01T12:24:25;97908.97;;;24.13;60.40
9822;BME280;4950;46.042;14.472;2023-06-01T12:26:53;97896.50;;;24.14;56.91
9822;BME280;4950;46.042;14.472;2023-06-01T12:29:34;97896.00;;;24.22;55.68
9822;BME280;4950;46.042;14.472;2023-06-01T12:32:01;97895.50;;;24.30;56.48
9822;BME280;4950;46.042;14.472;2023-06-01T12:34:28;97880.13;;;24.37;54.94
9822;BME280;4950;46.042;14.472;2023-06-01T12:36:56;97880.66;;;24.50;53.61
9822;BME280;4950;46.042;14.472;2023-06-01T12:39:31;97872.47;;;24.61;52.91
9822;BME280;4950;46.042;14.472;2023-06-01T12:42:01;97869.28;;;24.75;52.95
9822;BME280;4950;46.042;14.472;2023-06-01T12:44:29;97867.91;;;24.93;53.20
9822;BME280;4950;46.042;14.472;2023-06-01T12:46:56;97864.47;;;25.08;52.04
9822;BME280;4950;46.042;14.472;2023-06-01T12:49:24;97866.81;;;25.19;51.80
9822;BME280;4950;46.042;14.472;2023-06-01T12:51:51;97856.72;;;25.21;50.88
9822;BME280;4950;46.042;14.472;2023-06-01T12:54:19;97861.50;;;25.25;51.74
9822;BME280;4950;46.042;14.472;2023-06-01T12:56:48;97858.31;;;25.28;52.24
9822;BME280;4950;46.042;14.472;2023-06-01T12:59:15;97858.28;;;25.33;51.38
9822;BME280;4950;46.042;14.472;2023-06-01T13:01:42;97856.41;;;25.38;50.65
9822;BME280;4950;46.042;14.472;2023-06-01T13:04:09;97852.66;;;25.45;50.36
9822;BME280;4950;46.042;14.472;2023-06-01T13:06:35;97849.72;;;25.51;50.85
9822;BME280;4950;46.042;14.472;2023-06-01T13:09:02;97844.41;;;25.56;50.38
9822;BME280;4950;46.042;14.472;2023-06-01T13:11:30;97843.84;;;25.65;49.22
9822;BME280;4950;46.042;14.472;2023-06-01T13:13:57;97834.75;;;25.71;48.50
9822;BME280;4950;46.042;14.472;2023-06-01T13:16:23;97839.50;;;25.74;47.58
9822;BME280;4950;46.042;14.472;2023-06-01T13:18:50;97841.63;;;25.77;48.01
9822;BME280;4950;46.042;14.472;2023-06-01T13:21:17;97846.97;;;25.72;48.26